Create Custom Reports and Graphics: Custom Report

Modesto Jr College

Current Conditions

10/29/20 5:45 AM (-07:00)
Updated Every 15 Minutes
Temp 39.2 °F   2.9
RH 93 %   14
Dew Pt 37.5 °F   1.4
Wind Spd 0.0 mph
Wind Dir N | 0 °
Wind Gust 0.0 mph   1.5
Latest Rain 0.00 In
Daily Rain 0.00 In
Daily Min Temp 38.4 °F   1.1
Daily Max Temp 43.2 °F   5.0

Last 24 Hours

Modesto Jr College

15 Minute Data | America/Los_Angeles
as of 10/29/20 5:54 AM PDT
Date & Time Temp (°F) RH (%) Dew Pt (°F) Wind Spd (mph) Wind Dir (°) Wind Gust (mph) Latest Rain (In) Daily Rain (In) Daily Min Temp (°F) Daily Max Temp (°F)
10/29/20 - 0545 39.2 93 37.5 0.0 N | 0 0.0 0.00 0.00 38.4 43.2
10/29/20 - 0530 38.9 92 36.9 0.0 N | 0 0.0 0.00 0.00 38.4 43.2
10/29/20 - 0515 39.3 92 37.3 0.0 W | 273 0.7 0.00 0.00 38.8 43.2
10/29/20 - 0500 39.0 92 36.8 0.0 N | 0 0.0 0.00 0.00 38.8 43.2
10/29/20 - 0445 39.7 91 37.4 0.0 N | 0 0.0 0.00 0.00 39.0 43.2
10/29/20 - 0430 40.4 92 38.2 0.0 N | 0 0.0 0.00 0.00 40.0 43.2
10/29/20 - 0415 40.6 92 38.4 0.0 N | 0 0.0 0.00 0.00 40.0 43.2
10/29/20 - 0400 40.3 92 38.1 0.0 N | 0 0.0 0.00 0.00 40.0 43.2
10/29/20 - 0345 40.9 92 38.6 0.0 N | 0 0.0 0.00 0.00 40.3 43.2
10/29/20 - 0330 41.0 92 38.7 0.0 N | 0 0.0 0.00 0.00 40.4 43.2
10/29/20 - 0315 40.7 91 38.2 0.0 N | 0 0.0 0.00 0.00 40.4 43.2
10/29/20 - 0300 40.9 90 38.2 0.0 N | 0 0.0 0.00 0.00 40.6 43.2
10/29/20 - 0245 41.7 90 39.1 0.0 N | 0 0.0 0.00 0.00 40.9 43.2
10/29/20 - 0230 41.2 90 38.5 0.0 N | 0 0.0 0.00 0.00 40.9 43.2
10/29/20 - 0215 41.8 89 38.8 0.0 N | 0 0.0 0.00 0.00 41.4 43.2
10/29/20 - 0200 42.6 90 39.8 0.0 N | 0 0.0 0.00 0.00 41.7 43.2
10/29/20 - 0145 42.3 90 39.7 0.0 N | 0 0.0 0.00 0.00 41.7 43.2
10/29/20 - 0130 42.0 89 39.0 0.0 W | 273 0.4 0.00 0.00 41.7 43.2
10/29/20 - 0115 42.7 88 39.4 0.0 N | 0 0.0 0.00 0.00 42.1 43.2
10/29/20 - 0100 43.2 88 40.0 0.0 W | 273 0.7 0.00 0.00 37.6 78.3
10/29/20 - 0045 43.4 87 39.8 0.0 N | 0 0.0 0.00 0.00 37.6 78.3
10/29/20 - 0030 43.6 88 40.2 0.0 N | 0 0.0 0.00 0.00 37.6 78.3
10/29/20 - 0015 44.1 86 40.1 0.0 N | 0 0.0 0.00 0.00 37.6 78.3
10/29/20 - 0000 44.6 86 40.6 0.0 N | 0 0.0 0.00 0.00 37.6 78.3
10/28/20 - 2345 44.8 85 40.5 0.0 W | 272 0.7 0.00 0.00 37.6 78.3
10/28/20 - 2330 45.1 83 40.2 0.4 W | 275 1.5 0.00 0.00 37.6 78.3
10/28/20 - 2315 45.7 81 40.3 0.2 SSW | 198 1.1 0.00 0.00 37.6 78.3
10/28/20 - 2300 46.2 80 40.6 0.2 WSW | 248 1.1 0.00 0.00 37.6 78.3
10/28/20 - 2245 46.0 81 40.7 0.1 WSW | 248 1.1 0.00 0.00 37.6 78.3
10/28/20 - 2230 46.9 80 41.0 0.0 N | 0 0.0 0.00 0.00 37.6 78.3
10/28/20 - 2215 46.8 80 41.0 0.0 N | 0 0.0 0.00 0.00 37.6 78.3
10/28/20 - 2200 47.2 79 41.1 0.0 N | 0 0.0 0.00 0.00 37.6 78.3
10/28/20 - 2145 47.8 78 41.3 0.0 N | 0 0.0 0.00 0.00 37.6 78.3
10/28/20 - 2130 47.5 78 41.1 0.0 N | 0 0.0 0.00 0.00 37.6 78.3
10/28/20 - 2115 47.8 78 41.2 0.0 N | 0 0.0 0.00 0.00 37.6 78.3
10/28/20 - 2100 48.9 73 40.6 0.6 WSW | 242 1.8 0.00 0.00 37.6 78.3
10/28/20 - 2045 49.8 69 40.0 0.0 NNW | 343 0.7 0.00 0.00 37.6 78.3
10/28/20 - 2030 50.3 71 41.4 0.0 N | 0 0.0 0.00 0.00 37.6 78.3
10/28/20 - 2015 50.9 68 40.9 0.1 NNW | 343 0.7 0.00 0.00 37.6 78.3
10/28/20 - 2000 51.1 71 41.9 0.0 N | 0 0.0 0.00 0.00 37.6 78.3
10/28/20 - 1945 52.1 66 41.3 0.0 N | 0 0.0 0.00 0.00 37.6 78.3
10/28/20 - 1930 52.9 63 40.8 0.0 N | 0 0.0 0.00 0.00 37.6 78.3
10/28/20 - 1915 54.0 61 41.0 0.1 NNW | 343 0.7 0.00 0.00 37.6 78.3
10/28/20 - 1900 55.2 60 41.4 0.1 NNW | 343 0.7 0.00 0.00 37.6 78.3
10/28/20 - 1845 57.0 56 41.5 0.4 NNW | 343 1.1 0.00 0.00 37.6 78.3
10/28/20 - 1830 59.1 52 41.7 0.0 N | 0 0.0 0.00 0.00 37.6 78.3
10/28/20 - 1815 61.9 48 42.2 0.4 NNW | 347 1.5 0.00 0.00 37.6 78.3
10/28/20 - 1800 66.2 42 42.4 0.5 WNW | 301 1.3 0.00 0.00 37.6 78.3
10/28/20 - 1745 70.8 29 36.9 0.9 WSW | 238 1.8 0.00 0.00 37.6 78.3
10/28/20 - 1730 72.8 27 37.2 1.5 W | 259 2.6 0.00 0.00 37.6 78.3
10/28/20 - 1715 74.1 23 33.7 1.3 WSW | 241 2.6 0.00 0.00 37.6 78.3
10/28/20 - 1700 74.7 22 32.9 1.5 SW | 236 2.8 0.00 0.00 37.6 78.3
10/28/20 - 1645 75.3 23 34.7 2.1 W | 260 4.4 0.00 0.00 37.6 78.3
10/28/20 - 1630 75.5 20 32.2 2.0 WSW | 252 4.8 0.00 0.00 37.6 78.3
10/28/20 - 1615 75.7 22 34.2 1.9 WNW | 289 3.9 0.00 0.00 37.6 78.3
10/28/20 - 1600 76.7 20 32.5 1.1 WNW | 285 3.5 0.00 0.00 37.6 78.3
10/28/20 - 1545 76.3 19 31.0 1.3 W | 275 3.9 0.00 0.00 37.6 78.3
10/28/20 - 1530 76.7 19 31.8 1.6 W | 273 4.6 0.00 0.00 37.6 78.3
10/28/20 - 1515 77.7 19 31.8 2.2 WSW | 240 5.0 0.00 0.00 37.6 78.3
10/28/20 - 1500 77.6 19 32.4 2.0 WSW | 255 5.0 0.00 0.00 37.6 78.3
10/28/20 - 1445 76.6 19 31.6 2.4 SW | 233 6.1 0.00 0.00 37.6 77.8
10/28/20 - 1430 76.8 19 32.0 1.7 S | 186 5.5 0.00 0.00 37.6 77.8
10/28/20 - 1415 75.3 18 29.3 1.5 SSE | 162 4.2 0.00 0.00 37.6 76.7
10/28/20 - 1400 75.4 20 31.3 1.7 SE | 139 4.4 0.00 0.00 37.6 76.3
10/28/20 - 1345 73.8 22 32.8 1.3 WSW | 237 3.1 0.00 0.00 37.6 75.6
10/28/20 - 1330 73.2 24 33.8 1.8 NW | 307 4.8 0.00 0.00 37.6 73.9
10/28/20 - 1315 72.7 24 33.7 1.9 SE | 136 4.8 0.00 0.00 37.6 73.5
10/28/20 - 1300 71.8 27 35.6 2.1 SSE | 160 5.9 0.00 0.00 37.6 73.2
10/28/20 - 1245 70.8 28 36.3 2.9 SE | 130 5.3 0.00 0.00 37.6 71.3
10/28/20 - 1230 69.6 29 35.6 2.5 ESE | 104 5.7 0.00 0.00 37.6 70.7
10/28/20 - 1215 69.2 31 37.0 2.6 SE | 133 5.5 0.00 0.00 37.6 69.8
10/28/20 - 1200 68.5 31 36.5 2.0 SSE | 153 5.3 0.00 0.00 37.6 69.7
10/28/20 - 1145 67.4 32 37.0 1.7 SE | 141 6.4 0.00 0.00 37.6 69.0
10/28/20 - 1130 66.3 34 36.9 2.5 SE | 134 5.0 0.00 0.00 37.6 67.1
10/28/20 - 1115 65.3 34 36.3 1.9 SE | 142 5.0 0.00 0.00 37.6 66.4
10/28/20 - 1100 63.7 37 37.0 2.2 SE | 125 6.1 0.00 0.00 37.6 64.8
10/28/20 - 1045 61.6 39 36.6 3.1 ESE | 116 5.7 0.00 0.00 37.6 62.2
10/28/20 - 1030 60.8 42 37.3 2.8 ESE | 102 5.7 0.00 0.00 37.6 61.6
10/28/20 - 1015 59.9 41 36.2 3.2 SE | 124 5.3 0.00 0.00 37.6 60.2
10/28/20 - 1000 59.0 42 35.9 2.9 ESE | 110 5.7 0.00 0.00 37.6 59.6
10/28/20 - 0945 56.9 46 36.2 3.1 E | 92 5.3 0.00 0.00 37.6 58.2
10/28/20 - 0930 55.1 48 35.9 3.4 E | 86 5.7 0.00 0.00 37.6 55.9
10/28/20 - 0915 54.7 50 36.6 3.1 E | 93 5.9 0.00 0.00 37.6 55.2
10/28/20 - 0900 53.4 50 35.5 3.5 ESE | 103 8.1 0.00 0.00 37.6 54.1
10/28/20 - 0845 52.0 51 34.2 3.3 ESE | 122 7.2 0.00 0.00 37.6 52.9
10/28/20 - 0830 49.4 59 35.7 2.6 ESE | 102 5.9 0.00 0.00 37.6 51.0
10/28/20 - 0815 47.4 64 35.7 2.9 E | 85 5.0 0.00 0.00 37.6 48.3
10/28/20 - 0800 46.4 65 35.1 2.9 E | 86 4.4 0.00 0.00 37.6 48.2
10/28/20 - 0745 44.7 69 35.1 3.0 E | 100 5.5 0.00 0.00 37.6 48.2
10/28/20 - 0730 38.9 88 35.5 1.6 E | 97 4.2 0.00 0.00 37.6 48.2
10/28/20 - 0715 38.1 88 34.9 1.1 WSW | 240 2.2 0.00 0.00 37.6 48.2
10/28/20 - 0700 37.8 87 34.3 0.1 SW | 224 0.9 0.00 0.00 37.6 48.2
10/28/20 - 0645 38.4 86 34.5 0.3 SW | 224 1.1 0.00 0.00 37.7 48.2
10/28/20 - 0630 38.9 86 35.0 0.1 SW | 224 0.9 0.00 0.00 38.6 48.2
10/28/20 - 0615 39.2 84 34.9 0.0 N | 0 0.0 0.00 0.00 38.7 48.2
10/28/20 - 0600 40.4 80 34.6 1.0 SW | 232 2.6 0.00 0.00 39.2 48.2
10/28/20 - 0545 42.2 79 36.1 0.7 SSE | 152 1.5 0.00 0.00 39.5 48.2
Max 77.7 93 42.4 3.5 - 8.1 0.00 0.00 42.1 78.3
Avg 54.3 61 37.3 1.0 - 2.4 0.00 - - -
Min 37.8 18 29.3 0.0 - 0.0 0.00 0.00 37.6 43.2
Total - - - - - - 0.00 - - -

Last 7 Days

Modesto Jr College

Daily Data | America/Los_Angeles
as of 10/29/20 5:54 AM PDT
Date Daily ETo (in)
10/28/20 0.083
10/27/20 0.087
10/26/20 0.149
10/25/20 0.080
10/24/20 0.096
10/23/20 0.119
10/22/20 0.134
Max 0.149
Min 0.080